sensor_id;sensor_type;location;lat;lon;timestamp;pressure;altitude;pressure_sealevel;temperature;humidity
50310;BME280;36207;51.850;21.698;2023-02-17T00:01:24;100214.34;;;2.32;78.87
50310;BME280;36207;51.850;21.698;2023-02-17T00:03:51;100212.04;;;2.32;78.83
50310;BME280;36207;51.850;21.698;2023-02-17T00:06:19;100211.36;;;2.32;78.84
50310;BME280;36207;51.850;21.698;2023-02-17T00:08:47;100211.39;;;2.32;78.86
50310;BME280;36207;51.850;21.698;2023-02-17T00:11:13;100211.53;;;2.30;78.87
50310;BME280;36207;51.850;21.698;2023-02-17T00:13:40;100211.14;;;2.30;78.81
50310;BME280;36207;51.850;21.698;2023-02-17T00:16:09;100215.25;;;2.31;78.85
50310;BME280;36207;51.850;21.698;2023-02-17T00:18:35;100211.95;;;2.31;78.87
50310;BME280;36207;51.850;21.698;2023-02-17T00:21:11;100212.73;;;2.30;78.81
50310;BME280;36207;51.850;21.698;2023-02-17T00:23:37;100212.45;;;2.29;78.85
50310;BME280;36207;51.850;21.698;2023-02-17T00:26:05;100208.34;;;2.28;78.80
50310;BME280;36207;51.850;21.698;2023-02-17T00:28:31;100205.32;;;2.28;78.74
50310;BME280;36207;51.850;21.698;2023-02-17T00:30:57;100203.02;;;2.29;78.99
50310;BME280;36207;51.850;21.698;2023-02-17T00:33:23;100204.73;;;2.29;79.11
50310;BME280;36207;51.850;21.698;2023-02-17T00:35:49;100207.27;;;2.28;78.89
50310;BME280;36207;51.850;21.698;2023-02-17T00:38:15;100204.61;;;2.26;78.80
50310;BME280;36207;51.850;21.698;2023-02-17T00:40:40;100209.13;;;2.24;78.94
50310;BME280;36207;51.850;21.698;2023-02-17T00:43:07;100203.80;;;2.23;79.05
50310;BME280;36207;51.850;21.698;2023-02-17T00:45:33;100204.70;;;2.22;79.26
50310;BME280;36207;51.850;21.698;2023-02-17T00:47:59;100198.96;;;2.20;79.48
50310;BME280;36207;51.850;21.698;2023-02-17T00:50:25;100197.38;;;2.17;79.51
50310;BME280;36207;51.850;21.698;2023-02-17T00:52:51;100197.80;;;2.16;79.39
50310;BME280;36207;51.850;21.698;2023-02-17T00:55:17;100194.80;;;2.17;79.56
50310;BME280;36207;51.850;21.698;2023-02-17T00:57:42;100189.89;;;2.17;79.65
50310;BME280;36207;51.850;21.698;2023-02-17T01:00:09;100183.16;;;2.17;79.42
50310;BME280;36207;51.850;21.698;2023-02-17T01:02:35;100178.51;;;2.18;79.49
50310;BME280;36207;51.850;21.698;2023-02-17T01:05:01;100177.98;;;2.18;79.43
50310;BME280;36207;51.850;21.698;2023-02-17T01:07:26;100169.67;;;2.19;79.35
50310;BME280;36207;51.850;21.698;2023-02-17T01:09:52;100167.03;;;2.21;79.23
50310;BME280;36207;51.850;21.698;2023-02-17T01:12:18;100165.92;;;2.24;79.35
50310;BME280;36207;51.850;21.698;2023-02-17T01:14:44;100166.23;;;2.27;79.24
50310;BME280;36207;51.850;21.698;2023-02-17T01:17:10;100166.12;;;2.29;79.23
50310;BME280;36207;51.850;21.698;2023-02-17T01:19:36;100161.20;;;2.29;79.24
50310;BME280;36207;51.850;21.698;2023-02-17T01:22:02;100158.91;;;2.31;79.34
50310;BME280;36207;51.850;21.698;2023-02-17T01:24:29;100155.11;;;2.35;79.35
50310;BME280;36207;51.850;21.698;2023-02-17T01:26:55;100153.40;;;2.36;79.41
50310;BME280;36207;51.850;21.698;2023-02-17T01:29:21;100153.43;;;2.40;79.28
50310;BME280;36207;51.850;21.698;2023-02-17T01:31:47;100153.84;;;2.41;79.32
50310;BME280;36207;51.850;21.698;2023-02-17T01:34:13;100153.45;;;2.42;79.18
50310;BME280;36207;51.850;21.698;2023-02-17T01:36:38;100152.09;;;2.43;79.24
50310;BME280;36207;51.850;21.698;2023-02-17T01:39:04;100148.08;;;2.48;79.23
50310;BME280;36207;51.850;21.698;2023-02-17T01:41:30;100146.61;;;2.53;79.40
50310;BME280;36207;51.850;21.698;2023-02-17T01:44:10;100145.83;;;2.54;79.31
50310;BME280;36207;51.850;21.698;2023-02-17T01:46:40;100145.40;;;2.53;79.39
50310;BME280;36207;51.850;21.698;2023-02-17T01:49:39;100140.84;;;2.50;79.38
50310;BME280;36207;51.850;21.698;2023-02-17T01:52:08;100141.00;;;2.50;79.42
50310;BME280;36207;51.850;21.698;2023-02-17T01:54:42;100139.16;;;2.51;79.36
50310;BME280;36207;51.850;21.698;2023-02-17T01:57:12;100141.60;;;2.52;79.54
50310;BME280;36207;51.850;21.698;2023-02-17T01:59:40;100139.46;;;2.52;79.50
50310;BME280;36207;51.850;21.698;2023-02-17T02:02:07;100138.71;;;2.52;79.43
50310;BME280;36207;51.850;21.698;2023-02-17T02:04:35;100134.86;;;2.52;79.51
50310;BME280;36207;51.850;21.698;2023-02-17T02:07:05;100127.76;;;2.53;79.47
50310;BME280;36207;51.850;21.698;2023-02-17T02:09:38;100125.73;;;2.55;79.47
50310;BME280;36207;51.850;21.698;2023-02-17T02:12:19;100124.75;;;2.56;79.62
50310;BME280;36207;51.850;21.698;2023-02-17T02:14:46;100125.05;;;2.56;79.61
50310;BME280;36207;51.850;21.698;2023-02-17T02:17:39;100117.48;;;2.56;79.53
50310;BME280;36207;51.850;21.698;2023-02-17T02:34:54;100101.42;;;2.70;79.85
50310;BME280;36207;51.850;21.698;2023-02-17T02:37:31;100097.30;;;2.75;79.80
50310;BME280;36207;51.850;21.698;2023-02-17T02:40:02;100097.38;;;2.79;79.72
50310;BME280;36207;51.850;21.698;2023-02-17T02:42:31;100097.06;;;2.80;79.83
50310;BME280;36207;51.850;21.698;2023-02-17T02:44:59;100094.27;;;2.80;79.67
50310;BME280;36207;51.850;21.698;2023-02-17T02:47:46;100092.39;;;2.82;79.80
50310;BME280;36207;51.850;21.698;2023-02-17T02:50:33;100097.83;;;2.84;79.92
50310;BME280;36207;51.850;21.698;2023-02-17T02:58:57;100106.61;;;2.84;80.18
50310;BME280;36207;51.850;21.698;2023-02-17T03:01:59;100105.06;;;2.81;80.25
50310;BME280;36207;51.850;21.698;2023-02-17T03:06:58;100098.27;;;2.81;80.36
50310;BME280;36207;51.850;21.698;2023-02-17T03:09:27;100102.05;;;2.79;80.31
50310;BME280;36207;51.850;21.698;2023-02-17T03:11:55;100101.79;;;2.79;80.16
50310;BME280;36207;51.850;21.698;2023-02-17T03:14:22;100107.54;;;2.79;80.41
50310;BME280;36207;51.850;21.698;2023-02-17T03:16:50;100106.40;;;2.80;80.42
50310;BME280;36207;51.850;21.698;2023-02-17T03:19:18;100108.27;;;2.79;80.58
50310;BME280;36207;51.850;21.698;2023-02-17T03:22:06;100106.98;;;2.77;80.72
50310;BME280;36207;51.850;21.698;2023-02-17T03:24:34;100105.79;;;2.77;80.65
50310;BME280;36207;51.850;21.698;2023-02-17T03:27:00;100102.34;;;2.78;80.48
50310;BME280;36207;51.850;21.698;2023-02-17T03:29:26;100098.59;;;2.79;80.63
50310;BME280;36207;51.850;21.698;2023-02-17T03:31:52;100103.06;;;2.80;80.58
50310;BME280;36207;51.850;21.698;2023-02-17T03:34:18;100100.92;;;2.80;80.62
50310;BME280;36207;51.850;21.698;2023-02-17T03:36:44;100100.98;;;2.82;80.45
50310;BME280;36207;51.850;21.698;2023-02-17T03:39:09;100097.73;;;2.83;80.55
50310;BME280;36207;51.850;21.698;2023-02-17T03:41:35;100099.52;;;2.85;80.66
50310;BME280;36207;51.850;21.698;2023-02-17T03:44:01;100096.21;;;2.86;80.66
50310;BME280;36207;51.850;21.698;2023-02-17T03:46:27;100095.98;;;2.87;80.33
50310;BME280;36207;51.850;21.698;2023-02-17T03:48:53;100102.11;;;2.87;80.62
50310;BME280;36207;51.850;21.698;2023-02-17T03:51:21;100102.66;;;2.87;80.68
50310;BME280;36207;51.850;21.698;2023-02-17T03:53:48;100105.17;;;2.86;80.87
50310;BME280;36207;51.850;21.698;2023-02-17T03:56:15;100108.12;;;2.87;80.61
50310;BME280;36207;51.850;21.698;2023-02-17T03:58:42;100105.06;;;2.88;80.63
50310;BME280;36207;51.850;21.698;2023-02-17T04:01:09;100102.93;;;2.88;80.77
50310;BME280;36207;51.850;21.698;2023-02-17T04:03:36;100098.48;;;2.88;80.81
50310;BME280;36207;51.850;21.698;2023-02-17T04:06:03;100097.29;;;2.90;80.79
50310;BME280;36207;51.850;21.698;2023-02-17T04:08:30;100097.13;;;2.92;80.82
50310;BME280;36207;51.850;21.698;2023-02-17T04:10:58;100094.30;;;2.92;81.00
50310;BME280;36207;51.850;21.698;2023-02-17T04:13:24;100097.04;;;2.91;80.81
50310;BME280;36207;51.850;21.698;2023-02-17T04:15:51;100097.09;;;2.90;80.81
50310;BME280;36207;51.850;21.698;2023-02-17T04:18:18;100098.27;;;2.91;80.77
50310;BME280;36207;51.850;21.698;2023-02-17T04:20:47;100094.30;;;2.92;80.83
50310;BME280;36207;51.850;21.698;2023-02-17T04:23:14;100096.73;;;2.93;80.76
50310;BME280;36207;51.850;21.698;2023-02-17T04:25:40;100097.97;;;2.93;80.79
50310;BME280;36207;51.850;21.698;2023-02-17T04:28:07;100094.62;;;2.93;80.78
50310;BME280;36207;51.850;21.698;2023-02-17T04:30:34;100095.25;;;2.94;80.99
50310;BME280;36207;51.850;21.698;2023-02-17T04:33:00;100095.55;;;2.94;81.05
50310;BME280;36207;51.850;21.698;2023-02-17T04:35:26;100095.42;;;2.94;81.17
50310;BME280;36207;51.850;21.698;2023-02-17T04:37:52;100092.37;;;2.92;81.09
50310;BME280;36207;51.850;21.698;2023-02-17T04:40:18;100087.89;;;2.93;81.06
50310;BME280;36207;51.850;21.698;2023-02-17T04:42:45;100080.31;;;2.94;81.14
50310;BME280;36207;51.850;21.698;2023-02-17T04:45:11;100076.30;;;2.97;80.95
50310;BME280;36207;51.850;21.698;2023-02-17T04:47:38;100084.23;;;3.01;81.09
50310;BME280;36207;51.850;21.698;2023-02-17T04:50:05;100075.16;;;3.04;80.79
50310;BME280;36207;51.850;21.698;2023-02-17T04:52:32;100081.56;;;3.07;81.18
50310;BME280;36207;51.850;21.698;2023-02-17T04:54:57;100080.90;;;3.07;81.03
50310;BME280;36207;51.850;21.698;2023-02-17T04:57:24;100080.39;;;3.07;81.24
50310;BME280;36207;51.850;21.698;2023-02-17T04:59:50;100080.44;;;3.08;81.38
50310;BME280;36207;51.850;21.698;2023-02-17T05:02:16;100077.41;;;3.09;81.37
50310;BME280;36207;51.850;21.698;2023-02-17T05:04:42;100075.66;;;3.09;81.09
50310;BME280;36207;51.850;21.698;2023-02-17T05:07:08;100069.80;;;3.12;81.37
50310;BME280;36207;51.850;21.698;2023-02-17T05:09:34;100071.67;;;3.14;81.27
50310;BME280;36207;51.850;21.698;2023-02-17T05:11:59;100072.12;;;3.16;81.31
50310;BME280;36207;51.850;21.698;2023-02-17T05:14:28;100068.62;;;3.16;81.33
50310;BME280;36207;51.850;21.698;2023-02-17T05:16:54;100066.31;;;3.16;81.33
50310;BME280;36207;51.850;21.698;2023-02-17T05:19:20;100066.94;;;3.17;81.40
50310;BME280;36207;51.850;21.698;2023-02-17T05:21:46;100066.02;;;3.19;81.49
50310;BME280;36207;51.850;21.698;2023-02-17T05:24:12;100067.73;;;3.22;81.49
50310;BME280;36207;51.850;21.698;2023-02-17T05:26:38;100067.21;;;3.22;81.55
50310;BME280;36207;51.850;21.698;2023-02-17T05:29:04;100067.41;;;3.22;81.50
50310;BME280;36207;51.850;21.698;2023-02-17T05:31:30;100061.73;;;3.22;81.51
50310;BME280;36207;51.850;21.698;2023-02-17T05:33:56;100062.88;;;3.23;81.63
50310;BME280;36207;51.850;21.698;2023-02-17T05:36:22;100062.20;;;3.25;81.53
50310;BME280;36207;51.850;21.698;2023-02-17T05:38:47;100061.75;;;3.26;81.59
50310;BME280;36207;51.850;21.698;2023-02-17T05:41:15;100060.14;;;3.26;81.71
50310;BME280;36207;51.850;21.698;2023-02-17T05:43:41;100058.40;;;3.26;82.00
50310;BME280;36207;51.850;21.698;2023-02-17T05:46:07;100069.85;;;3.26;82.35
50310;BME280;36207;51.850;21.698;2023-02-17T05:48:33;100065.17;;;3.25;81.99
50310;BME280;36207;51.850;21.698;2023-02-17T05:50:59;100066.91;;;3.25;82.10
50310;BME280;36207;51.850;21.698;2023-02-17T05:53:26;100058.03;;;3.24;82.02
50310;BME280;36207;51.850;21.698;2023-02-17T05:55:52;100052.81;;;3.25;82.15
50310;BME280;36207;51.850;21.698;2023-02-17T05:58:18;100041.10;;;3.27;82.28
50310;BME280;36207;51.850;21.698;2023-02-17T06:00:44;100024.69;;;3.29;81.75
50310;BME280;36207;51.850;21.698;2023-02-17T06:03:11;100031.45;;;3.32;81.98
50310;BME280;36207;51.850;21.698;2023-02-17T06:05:38;100025.15;;;3.36;81.73
50310;BME280;36207;51.850;21.698;2023-02-17T06:08:04;100027.51;;;3.39;81.72
50310;BME280;36207;51.850;21.698;2023-02-17T06:10:30;100045.74;;;3.40;82.13
50310;BME280;36207;51.850;21.698;2023-02-17T06:12:57;100045.92;;;3.38;82.26
50310;BME280;36207;51.850;21.698;2023-02-17T06:15:23;100038.38;;;3.35;81.98
50310;BME280;36207;51.850;21.698;2023-02-17T06:17:49;100039.21;;;3.34;82.00
50310;BME280;36207;51.850;21.698;2023-02-17T06:20:15;100046.14;;;3.33;81.93
50310;BME280;36207;51.850;21.698;2023-02-17T06:22:42;100045.80;;;3.31;82.26
50310;BME280;36207;51.850;21.698;2023-02-17T06:25:08;100047.74;;;3.29;82.40
50310;BME280;36207;51.850;21.698;2023-02-17T06:27:35;100045.31;;;3.27;82.20
50310;BME280;36207;51.850;21.698;2023-02-17T06:30:00;100043.90;;;3.27;82.10
50310;BME280;36207;51.850;21.698;2023-02-17T06:32:27;100043.98;;;3.28;82.07
50310;BME280;36207;51.850;21.698;2023-02-17T06:34:53;100038.70;;;3.28;82.03
50310;BME280;36207;51.850;21.698;2023-02-17T06:37:18;100034.58;;;3.30;81.90
50310;BME280;36207;51.850;21.698;2023-02-17T06:39:44;100030.77;;;3.34;81.88
50310;BME280;36207;51.850;21.698;2023-02-17T06:42:10;100030.86;;;3.37;81.83
50310;BME280;36207;51.850;21.698;2023-02-17T06:44:36;100027.66;;;3.37;81.86
50310;BME280;36207;51.850;21.698;2023-02-17T06:47:02;100028.90;;;3.39;81.88
50310;BME280;36207;51.850;21.698;2023-02-17T06:49:29;100027.98;;;3.42;81.81
50310;BME280;36207;51.850;21.698;2023-02-17T06:51:55;100025.05;;;3.43;81.93
50310;BME280;36207;51.850;21.698;2023-02-17T06:54:20;100025.02;;;3.45;81.91
50310;BME280;36207;51.850;21.698;2023-02-17T06:56:46;100024.04;;;3.49;81.88
50310;BME280;36207;51.850;21.698;2023-02-17T06:59:12;100027.58;;;3.50;81.99
50310;BME280;36207;51.850;21.698;2023-02-17T07:01:38;100027.80;;;3.48;81.91
50310;BME280;36207;51.850;21.698;2023-02-17T07:04:04;100034.61;;;3.45;82.04
50310;BME280;36207;51.850;21.698;2023-02-17T07:06:31;100031.46;;;3.40;82.25
50310;BME280;36207;51.850;21.698;2023-02-17T07:08:57;100019.17;;;3.38;82.20
50310;BME280;36207;51.850;21.698;2023-02-17T07:11:23;100020.63;;;3.40;82.11
50310;BME280;36207;51.850;21.698;2023-02-17T07:13:49;100026.90;;;3.40;81.92
50310;BME280;36207;51.850;21.698;2023-02-17T07:16:15;100027.77;;;3.40;82.32
50310;BME280;36207;51.850;21.698;2023-02-17T07:18:41;100028.92;;;3.39;82.27
50310;BME280;36207;51.850;21.698;2023-02-17T07:21:08;100030.80;;;3.40;82.46
50310;BME280;36207;51.850;21.698;2023-02-17T07:23:35;100026.92;;;3.38;82.61
50310;BME280;36207;51.850;21.698;2023-02-17T07:26:06;100021.33;;;3.35;82.79
50310;BME280;36207;51.850;21.698;2023-02-17T07:28:34;100017.05;;;3.34;82.62
50310;BME280;36207;51.850;21.698;2023-02-17T07:31:19;100008.58;;;3.36;82.67
50310;BME280;36207;51.850;21.698;2023-02-17T07:33:45;100007.88;;;3.40;82.70
50310;BME280;36207;51.850;21.698;2023-02-17T07:36:15;100010.02;;;3.42;82.69
50310;BME280;36207;51.850;21.698;2023-02-17T07:38:41;100009.89;;;3.44;82.63
50310;BME280;36207;51.850;21.698;2023-02-17T07:41:10;100007.05;;;3.46;82.85
50310;BME280;36207;51.850;21.698;2023-02-17T07:43:36;100005.55;;;3.51;82.67
50310;BME280;36207;51.850;21.698;2023-02-17T07:46:03;100013.17;;;3.56;82.86
50310;BME280;36207;51.850;21.698;2023-02-17T07:48:29;100014.63;;;3.58;82.66
50310;BME280;36207;51.850;21.698;2023-02-17T07:50:55;100008.33;;;3.61;82.56
50310;BME280;36207;51.850;21.698;2023-02-17T07:53:22;100001.75;;;3.68;82.45
50310;BME280;36207;51.850;21.698;2023-02-17T07:55:48;99991.00;;;3.76;82.51
50310;BME280;36207;51.850;21.698;2023-02-17T07:58:14;99988.10;;;3.85;82.62
50310;BME280;36207;51.850;21.698;2023-02-17T08:00:39;99989.13;;;3.91;82.46
50310;BME280;36207;51.850;21.698;2023-02-17T08:03:05;99996.05;;;3.95;82.58
50310;BME280;36207;51.850;21.698;2023-02-17T08:05:31;99996.87;;;3.96;82.55
50310;BME280;36207;51.850;21.698;2023-02-17T08:07:57;99991.95;;;3.97;82.39
50310;BME280;36207;51.850;21.698;2023-02-17T08:10:42;99993.30;;;4.00;82.53
50310;BME280;36207;51.850;21.698;2023-02-17T08:13:27;99999.70;;;3.99;82.42
50310;BME280;36207;51.850;21.698;2023-02-17T08:15:53;99994.11;;;3.98;82.35
50310;BME280;36207;51.850;21.698;2023-02-17T08:18:18;99983.89;;;3.99;82.20
50310;BME280;36207;51.850;21.698;2023-02-17T08:20:44;99975.59;;;4.01;82.25
50310;BME280;36207;51.850;21.698;2023-02-17T08:23:11;99971.78;;;4.04;82.23
50310;BME280;36207;51.850;21.698;2023-02-17T08:25:37;99962.98;;;4.08;82.09
50310;BME280;36207;51.850;21.698;2023-02-17T08:28:03;99960.64;;;4.11;82.20
50310;BME280;36207;51.850;21.698;2023-02-17T08:30:30;99955.38;;;4.14;82.24
50310;BME280;36207;51.850;21.698;2023-02-17T08:32:59;99958.59;;;4.17;82.20
50310;BME280;36207;51.850;21.698;2023-02-17T08:35:26;99955.17;;;4.20;82.15
50310;BME280;36207;51.850;21.698;2023-02-17T08:37:53;99959.16;;;4.23;82.01
50310;BME280;36207;51.850;21.698;2023-02-17T08:40:19;99962.36;;;4.22;81.60
50310;BME280;36207;51.850;21.698;2023-02-17T08:42:45;99964.30;;;4.22;81.77
50310;BME280;36207;51.850;21.698;2023-02-17T08:45:12;99966.94;;;4.24;81.82
50310;BME280;36207;51.850;21.698;2023-02-17T08:47:39;99968.30;;;4.27;81.80
50310;BME280;36207;51.850;21.698;2023-02-17T08:50:06;99969.98;;;4.30;81.75
50310;BME280;36207;51.850;21.698;2023-02-17T08:52:33;99965.24;;;4.34;81.65
50310;BME280;36207;51.850;21.698;2023-02-17T08:55:00;99957.54;;;4.37;81.78
50310;BME280;36207;51.850;21.698;2023-02-17T08:57:26;99949.64;;;4.42;81.82
50310;BME280;36207;51.850;21.698;2023-02-17T08:59:53;99944.94;;;4.47;81.84
50310;BME280;36207;51.850;21.698;2023-02-17T09:02:19;99951.44;;;4.55;81.74
50310;BME280;36207;51.850;21.698;2023-02-17T09:04:45;99952.56;;;4.64;81.66
50310;BME280;36207;51.850;21.698;2023-02-17T09:07:13;99949.87;;;4.72;81.63
50310;BME280;36207;51.850;21.698;2023-02-17T09:09:39;99943.29;;;4.78;81.68
50310;BME280;36207;51.850;21.698;2023-02-17T09:12:06;99942.36;;;4.82;81.15
50310;BME280;36207;51.850;21.698;2023-02-17T09:14:32;99938.70;;;4.86;81.18
50310;BME280;36207;51.850;21.698;2023-02-17T09:16:58;99937.77;;;4.90;81.37
50310;BME280;36207;51.850;21.698;2023-02-17T09:19:24;99939.05;;;4.96;81.20
50310;BME280;36207;51.850;21.698;2023-02-17T09:21:51;99940.98;;;4.99;81.19
50310;BME280;36207;51.850;21.698;2023-02-17T09:24:18;99938.64;;;5.04;80.87
50310;BME280;36207;51.850;21.698;2023-02-17T09:26:44;99943.30;;;5.08;81.30
50310;BME280;36207;51.850;21.698;2023-02-17T09:29:10;99939.52;;;5.13;80.76
50310;BME280;36207;51.850;21.698;2023-02-17T09:31:36;99938.95;;;5.15;81.11
50310;BME280;36207;51.850;21.698;2023-02-17T09:34:03;99936.96;;;5.18;81.22
50310;BME280;36207;51.850;21.698;2023-02-17T09:36:32;99933.83;;;5.21;81.35
50310;BME280;36207;51.850;21.698;2023-02-17T09:38:59;99935.77;;;5.26;81.33
50310;BME280;36207;51.850;21.698;2023-02-17T09:41:37;99932.61;;;5.29;80.96
50310;BME280;36207;51.850;21.698;2023-02-17T09:44:11;99930.36;;;5.33;80.85
50310;BME280;36207;51.850;21.698;2023-02-17T09:49:42;99922.89;;;5.39;80.68
50310;BME280;36207;51.850;21.698;2023-02-17T09:52:38;99917.66;;;5.42;80.71
50310;BME280;36207;51.850;21.698;2023-02-17T09:55:17;99916.07;;;5.46;80.65
50310;BME280;36207;51.850;21.698;2023-02-17T10:00:18;99914.67;;;5.51;80.71
50310;BME280;36207;51.850;21.698;2023-02-17T10:05:28;99903.30;;;5.62;80.94
50310;BME280;36207;51.850;21.698;2023-02-17T10:08:06;99901.89;;;5.68;80.91
50310;BME280;36207;51.850;21.698;2023-02-17T10:10:42;99894.33;;;5.71;80.82
50310;BME280;36207;51.850;21.698;2023-02-17T10:13:13;99890.30;;;5.76;81.08
50310;BME280;36207;51.850;21.698;2023-02-17T10:15:43;99885.41;;;5.81;81.21
50310;BME280;36207;51.850;21.698;2023-02-17T10:18:20;99878.98;;;5.85;80.86
50310;BME280;36207;51.850;21.698;2023-02-17T10:21:04;99874.22;;;5.89;80.98
50310;BME280;36207;51.850;21.698;2023-02-17T10:23:32;99871.55;;;5.93;80.44
50310;BME280;36207;51.850;21.698;2023-02-17T10:29:05;99872.77;;;5.97;80.19
50310;BME280;36207;51.850;21.698;2023-02-17T10:34:45;99869.96;;;6.03;80.58
50310;BME280;36207;51.850;21.698;2023-02-17T10:39:57;99865.20;;;6.10;80.31
50310;BME280;36207;51.850;21.698;2023-02-17T10:42:29;99857.14;;;6.13;79.94
50310;BME280;36207;51.850;21.698;2023-02-17T10:45:06;99854.77;;;6.16;79.67
50310;BME280;36207;51.850;21.698;2023-02-17T10:47:37;99853.11;;;6.18;79.88
50310;BME280;36207;51.850;21.698;2023-02-17T10:50:12;99850.01;;;6.21;79.80
50310;BME280;36207;51.850;21.698;2023-02-17T10:52:39;99840.77;;;6.25;80.22
50310;BME280;36207;51.850;21.698;2023-02-17T10:55:24;99837.27;;;6.30;80.42
50310;BME280;36207;51.850;21.698;2023-02-17T10:58:43;99830.29;;;6.32;80.32
50310;BME280;36207;51.850;21.698;2023-02-17T11:00:54;99834.40;;;6.32;80.12
50310;BME280;36207;51.850;21.698;2023-02-17T11:03:24;99828.44;;;6.32;79.76
50310;BME280;36207;51.850;21.698;2023-02-17T11:05:55;99821.10;;;6.30;80.15
50310;BME280;36207;51.850;21.698;2023-02-17T11:09:01;99818.44;;;6.29;80.35
50310;BME280;36207;51.850;21.698;2023-02-17T11:11:30;99806.81;;;6.26;79.94
50310;BME280;36207;51.850;21.698;2023-02-17T11:14:18;99802.73;;;6.25;79.85
50310;BME280;36207;51.850;21.698;2023-02-17T11:16:56;99800.05;;;6.22;80.53
50310;BME280;36207;51.850;21.698;2023-02-17T11:19:27;99798.73;;;6.19;81.01
50310;BME280;36207;51.850;21.698;2023-02-17T11:21:57;99796.82;;;6.15;81.44
50310;BME280;36207;51.850;21.698;2023-02-17T11:24:24;99794.80;;;6.11;82.03
50310;BME280;36207;51.850;21.698;2023-02-17T11:29:23;99796.02;;;6.06;82.52
50310;BME280;36207;51.850;21.698;2023-02-17T11:32:01;99793.58;;;6.08;82.56
50310;BME280;36207;51.850;21.698;2023-02-17T11:34:30;99789.53;;;6.11;82.73
50310;BME280;36207;51.850;21.698;2023-02-17T11:37:01;99786.99;;;6.13;83.15
50310;BME280;36207;51.850;21.698;2023-02-17T11:39:28;99778.90;;;6.12;83.07
50310;BME280;36207;51.850;21.698;2023-02-17T11:41:54;99776.67;;;6.12;83.24
50310;BME280;36207;51.850;21.698;2023-02-17T11:44:24;99774.39;;;6.10;83.60
50310;BME280;36207;51.850;21.698;2023-02-17T11:46:57;99768.59;;;6.06;83.92
50310;BME280;36207;51.850;21.698;2023-02-17T11:49:45;99759.16;;;6.00;84.31
50310;BME280;36207;51.850;21.698;2023-02-17T11:52:41;99749.73;;;5.95;84.80
50310;BME280;36207;51.850;21.698;2023-02-17T11:58:16;99735.64;;;5.95;85.09
50310;BME280;36207;51.850;21.698;2023-02-17T12:04:27;99721.81;;;5.93;85.02
50310;BME280;36207;51.850;21.698;2023-02-17T12:12:55;99700.05;;;6.04;84.64
50310;BME280;36207;51.850;21.698;2023-02-17T12:18:32;99690.60;;;6.10;85.45
50310;BME280;36207;51.850;21.698;2023-02-17T12:32:33;99663.77;;;6.23;85.61
50310;BME280;36207;51.850;21.698;2023-02-17T12:35:22;99660.48;;;6.30;85.23
50310;BME280;36207;51.850;21.698;2023-02-17T12:38:13;99651.42;;;6.35;85.32
50310;BME280;36207;51.850;21.698;2023-02-17T12:40:46;99646.38;;;6.41;85.29
50310;BME280;36207;51.850;21.698;2023-02-17T12:45:51;99634.20;;;6.51;85.23
50310;BME280;36207;51.850;21.698;2023-02-17T12:48:23;99629.98;;;6.52;85.19
50310;BME280;36207;51.850;21.698;2023-02-17T12:59:09;99604.34;;;6.54;85.09
50310;BME280;36207;51.850;21.698;2023-02-17T13:01:40;99596.27;;;6.57;85.21
50310;BME280;36207;51.850;21.698;2023-02-17T13:04:10;99592.44;;;6.58;85.01
50310;BME280;36207;51.850;21.698;2023-02-17T13:06:45;99583.54;;;6.57;84.99
50310;BME280;36207;51.850;21.698;2023-02-17T13:09:32;99578.27;;;6.56;85.29
50310;BME280;36207;51.850;21.698;2023-02-17T13:14:46;99572.67;;;6.59;84.97
50310;BME280;36207;51.850;21.698;2023-02-17T13:17:39;99569.09;;;6.61;85.03
50310;BME280;36207;51.850;21.698;2023-02-17T13:22:43;99556.75;;;6.62;84.70
50310;BME280;36207;51.850;21.698;2023-02-17T13:25:11;99550.46;;;6.65;84.71
50310;BME280;36207;51.850;21.698;2023-02-17T13:27:39;99547.10;;;6.68;84.86
50310;BME280;36207;51.850;21.698;2023-02-17T13:32:58;99547.52;;;6.69;84.68
50310;BME280;36207;51.850;21.698;2023-02-17T13:37:51;99536.67;;;6.71;84.77
50310;BME280;36207;51.850;21.698;2023-02-17T13:42:51;99526.37;;;6.74;84.98
50310;BME280;36207;51.850;21.698;2023-02-17T13:47:52;99524.21;;;6.72;84.83
50310;BME280;36207;51.850;21.698;2023-02-17T13:52:57;99529.40;;;6.75;84.98
50310;BME280;36207;51.850;21.698;2023-02-17T13:55:24;99531.36;;;6.73;85.18
50310;BME280;36207;51.850;21.698;2023-02-17T13:57:57;99531.09;;;6.70;85.20
50310;BME280;36207;51.850;21.698;2023-02-17T14:00:29;99531.72;;;6.70;85.27
50310;BME280;36207;51.850;21.698;2023-02-17T14:05:45;99521.16;;;6.68;85.28
50310;BME280;36207;51.850;21.698;2023-02-17T14:08:31;99516.02;;;6.66;85.43
50310;BME280;36207;51.850;21.698;2023-02-17T14:11:13;99515.04;;;6.64;85.98
50310;BME280;36207;51.850;21.698;2023-02-17T14:13:43;99507.94;;;6.62;85.70
50310;BME280;36207;51.850;21.698;2023-02-17T14:16:32;99504.59;;;6.64;85.79
50310;BME280;36207;51.850;21.698;2023-02-17T14:19:08;99502.06;;;6.63;85.78
50310;BME280;36207;51.850;21.698;2023-02-17T14:21:36;99500.66;;;6.62;86.23
50310;BME280;36207;51.850;21.698;2023-02-17T14:24:03;99497.39;;;6.62;86.35
50310;BME280;36207;51.850;21.698;2023-02-17T14:26:45;99493.88;;;6.61;86.36
50310;BME280;36207;51.850;21.698;2023-02-17T14:29:12;99492.29;;;6.61;86.05
50310;BME280;36207;51.850;21.698;2023-02-17T14:31:41;99487.41;;;6.61;86.35
50310;BME280;36207;51.850;21.698;2023-02-17T14:34:23;99484.42;;;6.59;86.55
50310;BME280;36207;51.850;21.698;2023-02-17T14:36:50;99480.71;;;6.59;86.52
50310;BME280;36207;51.850;21.698;2023-02-17T14:39:16;99475.88;;;6.59;86.56
50310;BME280;36207;51.850;21.698;2023-02-17T14:41:42;99472.23;;;6.59;87.29
50310;BME280;36207;51.850;21.698;2023-02-17T14:44:08;99469.43;;;6.57;86.80
50310;BME280;36207;51.850;21.698;2023-02-17T14:46:35;99458.77;;;6.58;86.71
50310;BME280;36207;51.850;21.698;2023-02-17T14:49:01;99450.94;;;6.59;86.71